createdAt,value
2019-05-01T00:00:19.208Z,15.19
2019-05-01T00:01:19.637Z,15.19
2019-05-01T00:02:20.079Z,15.15
2019-05-01T00:03:20.501Z,15.11
2019-05-01T00:04:20.938Z,15.06
2019-05-01T00:05:21.371Z,15.10
2019-05-01T00:06:21.847Z,15.11
2019-05-01T00:08:56.418Z,15.04
2019-05-01T00:09:56.844Z,14.91
2019-05-01T00:11:52.394Z,14.97
2019-05-01T00:12:52.819Z,15.00
2019-05-01T00:14:47.389Z,15.17
2019-05-01T00:15:47.811Z,15.17
2019-05-01T00:17:42.367Z,15.14
2019-05-01T00:18:42.807Z,15.03
2019-05-01T00:20:37.372Z,15.17
2019-05-01T00:21:37.815Z,15.14
2019-05-01T00:23:33.337Z,15.22
2019-05-01T00:24:33.839Z,15.24
2019-05-01T00:26:29.320Z,15.18
2019-05-01T00:27:29.748Z,15.10
2019-05-01T00:29:24.298Z,15.11
2019-05-01T00:30:30.092Z,15.21
2019-05-01T00:32:20.309Z,15.19
2019-05-01T00:33:20.723Z,15.03
2019-05-01T00:35:15.327Z,15.28
2019-05-01T00:36:15.696Z,15.31
2019-05-01T00:39:46.604Z,15.03
2019-05-01T00:42:20.116Z,15.21
2019-05-01T00:44:53.631Z,15.07
2019-05-01T00:45:54.055Z,14.85
2019-05-01T00:47:48.622Z,14.89
2019-05-01T00:48:49.051Z,14.86
2019-05-01T00:50:44.615Z,14.91
2019-05-01T00:51:45.028Z,15.02
2019-05-01T00:53:39.592Z,14.97
2019-05-01T00:54:40.035Z,15.15
2019-05-01T00:56:35.586Z,15.10
2019-05-01T00:57:36.009Z,15.24
2019-05-01T00:59:30.583Z,15.09
2019-05-01T01:00:42.547Z,15.21
2019-05-01T01:01:31.443Z,15.21
2019-05-01T01:02:31.878Z,15.24
2019-05-01T01:03:32.321Z,15.25
2019-05-01T01:04:32.748Z,15.09
2019-05-01T01:05:33.176Z,15.22
2019-05-01T01:06:33.607Z,15.29
2019-05-01T01:07:34.041Z,15.25
2019-05-01T01:08:34.473Z,15.28
2019-05-01T01:09:34.903Z,15.33
2019-05-01T01:10:35.340Z,15.28
2019-05-01T01:11:35.770Z,15.29
2019-05-01T01:12:36.202Z,15.15
2019-05-01T01:13:36.635Z,15.15
2019-05-01T01:14:37.069Z,15.22
2019-05-01T01:15:37.503Z,15.14
2019-05-01T01:16:37.933Z,15.06
2019-05-01T01:17:38.371Z,15.22
2019-05-01T01:18:38.804Z,15.11
2019-05-01T01:19:39.232Z,15.22
2019-05-01T01:20:39.666Z,15.06
2019-05-01T01:21:40.103Z,15.02
2019-05-01T01:22:40.530Z,15.00
2019-05-01T01:23:40.967Z,14.97
2019-05-01T01:24:41.393Z,14.97
2019-05-01T01:25:41.827Z,14.84
2019-05-01T01:26:42.262Z,14.78
2019-05-01T01:27:42.690Z,14.68
2019-05-01T01:28:43.121Z,14.72
2019-05-01T01:29:43.562Z,14.73
2019-05-01T01:30:55.610Z,14.82
2019-05-01T01:31:44.421Z,14.79
2019-05-01T01:32:44.853Z,14.78
2019-05-01T01:33:45.285Z,14.63
2019-05-01T01:34:45.780Z,14.72
2019-05-01T01:35:46.157Z,14.72
2019-05-01T01:36:46.584Z,14.69
2019-05-01T01:37:47.017Z,14.70
2019-05-01T01:38:47.447Z,14.66
2019-05-01T01:39:47.885Z,14.69
2019-05-01T01:40:48.309Z,14.63
2019-05-01T01:41:48.741Z,14.70
2019-05-01T01:42:49.183Z,14.58
2019-05-01T01:43:49.607Z,14.59
2019-05-01T01:44:50.040Z,14.48
2019-05-01T01:45:50.469Z,14.45
2019-05-01T01:46:50.924Z,14.43
2019-05-01T01:47:51.329Z,14.43
2019-05-01T01:48:51.778Z,14.35
2019-05-01T01:49:52.199Z,14.33
2019-05-01T01:50:52.649Z,14.18
2019-05-01T01:51:53.067Z,14.25
2019-05-01T01:52:53.747Z,14.26
2019-05-01T01:53:53.928Z,14.25
2019-05-01T01:54:54.361Z,14.23
2019-05-01T01:55:54.792Z,14.20
2019-05-01T01:56:55.230Z,14.05
2019-05-01T01:57:55.670Z,14.17
2019-05-01T01:58:56.086Z,14.12
2019-05-01T01:59:56.521Z,14.05
2019-05-01T02:01:08.992Z,14.05
2019-05-01T02:01:57.377Z,14.07
2019-05-01T02:02:57.812Z,14.04
2019-05-01T02:03:58.240Z,14.05
2019-05-01T02:04:58.669Z,14.05
2019-05-01T02:05:59.103Z,14.10
2019-05-01T02:06:59.532Z,14.10
2019-05-01T02:07:59.964Z,14.12
2019-05-01T02:09:00.397Z,14.08
2019-05-01T02:10:00.852Z,13.95
2019-05-01T02:11:01.267Z,13.89
2019-05-01T02:12:01.697Z,13.97
2019-05-01T02:13:02.122Z,14.10
2019-05-01T02:14:02.554Z,14.20
2019-05-01T02:15:02.976Z,14.25
2019-05-01T02:16:03.421Z,14.08
2019-05-01T02:17:03.844Z,14.11
2019-05-01T02:18:04.275Z,14.10
2019-05-01T02:19:04.707Z,14.00
2019-05-01T02:20:05.137Z,13.96
2019-05-01T02:21:05.575Z,13.93
2019-05-01T02:22:06.003Z,14.00
2019-05-01T02:23:06.431Z,13.86
2019-05-01T02:24:06.863Z,13.81
2019-05-01T02:25:07.294Z,13.93
2019-05-01T02:26:07.725Z,13.95
2019-05-01T02:27:08.155Z,13.95
2019-05-01T02:28:08.597Z,13.95
2019-05-01T02:29:09.031Z,13.92
2019-05-01T02:30:09.458Z,13.79
2019-05-01T02:31:26.701Z,13.78
2019-05-01T02:32:10.309Z,13.78
2019-05-01T02:33:10.740Z,13.81
2019-05-01T02:34:11.215Z,13.81
2019-05-01T02:35:11.610Z,13.81
2019-05-01T02:36:12.038Z,13.71
2019-05-01T02:37:12.473Z,13.74
2019-05-01T02:38:12.900Z,13.71
2019-05-01T02:39:13.326Z,13.70
2019-05-01T02:40:13.751Z,13.65
2019-05-01T02:41:14.193Z,13.72
2019-05-01T02:42:14.631Z,13.63
2019-05-01T02:43:15.049Z,13.62
2019-05-01T02:44:15.477Z,13.68
2019-05-01T02:45:15.912Z,13.70
2019-05-01T02:46:16.341Z,13.70
2019-05-01T02:47:16.770Z,13.65
2019-05-01T02:48:17.198Z,13.49
2019-05-01T02:49:17.800Z,13.59
2019-05-01T02:50:18.071Z,13.56
2019-05-01T02:51:18.491Z,13.52
2019-05-01T02:52:18.929Z,13.52
2019-05-01T02:53:19.359Z,13.63
2019-05-01T02:54:19.785Z,13.65
2019-05-01T02:55:20.214Z,13.56
2019-05-01T02:56:20.648Z,13.54
2019-05-01T02:57:21.077Z,13.59
2019-05-01T02:58:21.502Z,13.44
2019-05-01T02:59:21.935Z,13.50
2019-05-01T03:00:22.383Z,13.47
2019-05-01T03:01:22.802Z,13.49
2019-05-01T03:02:23.228Z,13.53
2019-05-01T03:03:23.659Z,13.39
2019-05-01T03:04:24.093Z,13.38
2019-05-01T03:05:24.520Z,13.39
2019-05-01T03:06:24.953Z,13.42
2019-05-01T03:07:25.378Z,13.37
2019-05-01T03:08:25.804Z,13.38
2019-05-01T03:09:26.238Z,13.35
2019-05-01T03:10:26.666Z,13.35
2019-05-01T03:11:27.098Z,13.20
2019-05-01T03:12:27.529Z,13.33
2019-05-01T03:13:27.959Z,13.23
2019-05-01T03:14:28.388Z,13.37
2019-05-01T03:15:28.822Z,13.35
2019-05-01T03:16:29.249Z,13.37
2019-05-01T03:17:29.707Z,13.25
2019-05-01T03:18:30.114Z,13.35
2019-05-01T03:19:30.537Z,13.20
2019-05-01T03:20:30.968Z,13.28
2019-05-01T03:21:31.403Z,13.28
2019-05-01T03:22:31.824Z,13.33
2019-05-01T03:23:32.268Z,13.33
2019-05-01T03:24:32.687Z,13.13
2019-05-01T03:25:33.127Z,13.28
2019-05-01T03:26:33.550Z,13.27
2019-05-01T03:27:33.982Z,13.23
2019-05-01T03:28:34.413Z,13.16
2019-05-01T03:29:34.840Z,13.15
2019-05-01T03:30:35.268Z,13.19
2019-05-01T03:31:35.714Z,13.27
2019-05-01T03:32:36.128Z,13.16
2019-05-01T03:33:36.560Z,13.13
2019-05-01T03:34:36.981Z,13.04
2019-05-01T03:35:37.415Z,13.09
2019-05-01T03:36:37.851Z,13.15
2019-05-01T03:37:38.274Z,13.08
2019-05-01T03:38:38.704Z,13.12
2019-05-01T03:39:39.136Z,13.19
2019-05-01T03:40:39.563Z,13.05
2019-05-01T03:41:40.002Z,13.12
2019-05-01T03:42:40.425Z,13.18
2019-05-01T03:43:40.853Z,13.13
2019-05-01T03:44:41.282Z,13.04
2019-05-01T03:45:41.718Z,13.12
2019-05-01T03:46:42.145Z,12.97
2019-05-01T03:47:42.569Z,12.91
2019-05-01T03:48:43.026Z,12.98
2019-05-01T03:49:43.461Z,12.94
2019-05-01T03:50:46.840Z,13.00
2019-05-01T03:51:44.291Z,13.01
2019-05-01T03:52:44.719Z,13.05
2019-05-01T03:53:45.160Z,13.03
2019-05-01T03:54:45.614Z,12.95
2019-05-01T03:55:46.007Z,12.91
2019-05-01T03:56:46.439Z,12.91
2019-05-01T03:57:46.866Z,12.95
2019-05-01T03:58:47.294Z,12.87
2019-05-01T03:59:47.725Z,12.93
2019-05-01T04:00:48.152Z,12.91
2019-05-01T04:01:48.586Z,12.91
2019-05-01T04:02:49.015Z,12.95
2019-05-01T04:03:49.454Z,12.93
2019-05-01T04:04:49.873Z,12.83
2019-05-01T04:05:50.299Z,12.85
2019-05-01T04:06:50.727Z,12.73
2019-05-01T04:07:51.160Z,12.70
2019-05-01T04:08:51.589Z,12.75
2019-05-01T04:09:52.017Z,12.85
2019-05-01T04:10:52.451Z,12.72
2019-05-01T04:11:52.873Z,12.70
2019-05-01T04:12:53.306Z,12.60
2019-05-01T04:13:53.734Z,12.62
2019-05-01T04:14:54.166Z,12.60
2019-05-01T04:15:54.592Z,12.50
2019-05-01T04:16:55.035Z,12.47
2019-05-01T04:17:55.451Z,12.43
2019-05-01T04:18:55.881Z,12.55
2019-05-01T04:19:56.319Z,12.46
2019-05-01T04:20:56.740Z,12.55
2019-05-01T04:21:57.171Z,12.49
2019-05-01T04:22:57.607Z,12.43
2019-05-01T04:23:58.030Z,12.37
2019-05-01T04:24:58.461Z,12.35
2019-05-01T04:25:58.887Z,12.35
2019-05-01T04:26:59.314Z,12.39
2019-05-01T04:27:59.754Z,12.27
2019-05-01T04:29:00.174Z,12.29
2019-05-01T04:30:00.600Z,12.25
2019-05-01T04:31:01.032Z,12.27
2019-05-01T04:32:01.460Z,12.25
2019-05-01T04:33:01.891Z,12.36
2019-05-01T04:34:02.319Z,12.36
2019-05-01T04:35:02.811Z,12.32
2019-05-01T04:36:26.919Z,12.28
2019-05-01T04:37:03.606Z,12.25
2019-05-01T04:38:04.035Z,12.21
2019-05-01T04:39:04.477Z,12.27
2019-05-01T04:40:04.892Z,12.28
2019-05-01T04:41:05.319Z,12.28
2019-05-01T04:42:05.751Z,12.37
2019-05-01T04:43:06.179Z,12.35
2019-05-01T04:44:06.618Z,12.27
2019-05-01T04:45:07.044Z,12.27
2019-05-01T04:46:10.424Z,12.36
2019-05-01T04:47:07.896Z,12.31
2019-05-01T04:48:08.327Z,12.32
2019-05-01T04:49:08.757Z,12.39
2019-05-01T04:50:09.201Z,12.31
2019-05-01T04:51:09.613Z,12.28
2019-05-01T04:52:10.041Z,12.36
2019-05-01T04:53:10.468Z,12.28
2019-05-01T04:54:10.901Z,12.31
2019-05-01T04:55:11.327Z,12.22
2019-05-01T04:56:12.424Z,12.31
2019-05-01T04:57:14.940Z,12.28
2019-05-01T04:58:12.694Z,12.31
2019-05-01T04:59:15.922Z,12.24
2019-05-01T05:00:13.472Z,12.22
2019-05-01T05:01:13.965Z,12.18
2019-05-01T05:02:14.345Z,12.27
2019-05-01T05:03:14.755Z,12.29
2019-05-01T05:04:15.193Z,12.37
2019-05-01T05:05:15.625Z,12.37
2019-05-01T05:06:16.058Z,12.35
2019-05-01T05:07:16.482Z,12.32
2019-05-01T05:08:16.907Z,12.36
2019-05-01T05:09:17.329Z,12.36
2019-05-01T05:10:17.768Z,12.43
2019-05-01T05:11:18.188Z,12.37
2019-05-01T05:12:18.622Z,12.50
2019-05-01T05:14:19.472Z,12.58
2019-05-01T05:15:19.908Z,12.61
2019-05-01T05:16:20.337Z,12.55
2019-05-01T05:17:20.931Z,12.54
2019-05-01T05:18:21.190Z,12.39
2019-05-01T05:19:36.428Z,12.45
2019-05-01T05:20:22.053Z,12.37
2019-05-01T05:21:22.500Z,12.43
2019-05-01T05:22:22.921Z,12.36
2019-05-01T05:23:23.346Z,12.39
2019-05-01T05:24:23.776Z,12.55
2019-05-01T05:25:24.201Z,12.49
2019-05-01T05:26:24.630Z,12.55
2019-05-01T05:27:25.063Z,12.50
2019-05-01T05:28:25.491Z,12.57
2019-05-01T05:29:25.919Z,12.53
2019-05-01T05:30:26.351Z,12.47
2019-05-01T05:31:26.779Z,12.57
2019-05-01T05:32:27.212Z,12.55
2019-05-01T05:33:27.637Z,12.61
2019-05-01T05:34:28.087Z,12.45
2019-05-01T05:35:28.510Z,12.37
2019-05-01T05:36:28.930Z,12.49
2019-05-01T05:37:29.358Z,12.53
2019-05-01T05:38:29.784Z,12.31
2019-05-01T05:39:30.218Z,12.37
2019-05-01T05:40:30.645Z,12.45
2019-05-01T05:41:31.078Z,12.40
2019-05-01T05:42:31.508Z,12.37
2019-05-01T05:43:31.940Z,12.53
2019-05-01T05:44:32.366Z,12.37
2019-05-01T05:45:32.793Z,12.46
2019-05-01T05:46:33.231Z,12.47
2019-05-01T05:47:33.685Z,12.36
2019-05-01T05:48:34.086Z,12.47
2019-05-01T05:49:34.512Z,12.43
2019-05-01T05:50:34.948Z,12.53
2019-05-01T05:51:35.377Z,12.65
2019-05-01T05:52:35.800Z,12.76
2019-05-01T05:53:36.233Z,12.85
2019-05-01T05:54:36.669Z,12.85
2019-05-01T05:55:37.095Z,13.05
2019-05-01T05:56:37.517Z,13.11
2019-05-01T05:57:37.954Z,13.18
2019-05-01T05:58:38.388Z,13.28
2019-05-01T05:59:38.813Z,13.18
2019-05-01T06:00:39.245Z,13.11
2019-05-01T06:01:39.673Z,13.15
2019-05-01T06:02:40.107Z,13.16
2019-05-01T06:03:40.563Z,13.05
2019-05-01T06:04:40.966Z,13.13
2019-05-01T06:05:41.429Z,13.30
2019-05-01T06:06:41.836Z,13.22
2019-05-01T06:07:42.259Z,13.25
2019-05-01T06:08:42.687Z,13.16
2019-05-01T06:09:44.644Z,13.23
2019-05-01T06:10:43.552Z,13.27
2019-05-01T06:11:43.984Z,13.31
2019-05-01T06:12:46.755Z,13.13
2019-05-01T06:13:44.838Z,13.05
2019-05-01T06:14:45.319Z,12.90
2019-05-01T06:15:45.708Z,12.68
2019-05-01T06:16:46.903Z,12.85
2019-05-01T06:17:46.567Z,12.85
2019-05-01T06:18:47.016Z,12.87
2019-05-01T06:19:49.592Z,12.76
2019-05-01T06:20:47.867Z,13.03
2019-05-01T06:21:48.291Z,12.87
2019-05-01T06:22:48.723Z,12.90
2019-05-01T06:23:52.810Z,12.58
2019-05-01T06:24:49.586Z,12.61
2019-05-01T06:25:54.320Z,12.54
2019-05-01T06:26:50.448Z,12.49
2019-05-01T06:27:50.871Z,12.42
2019-05-01T06:28:51.304Z,12.46
2019-05-01T06:29:51.737Z,12.55
2019-05-01T06:30:52.173Z,12.73
2019-05-01T06:31:53.904Z,12.73
2019-05-01T06:32:53.031Z,12.67
2019-05-01T06:33:54.968Z,12.62
2019-05-01T06:34:53.904Z,12.61
2019-05-01T06:35:54.316Z,12.67
2019-05-01T06:36:54.743Z,12.83
2019-05-01T06:37:56.012Z,12.73
2019-05-01T06:38:55.606Z,12.68
2019-05-01T06:39:56.038Z,12.80
2019-05-01T06:40:58.287Z,12.90
2019-05-01T06:41:56.900Z,13.13
2019-05-01T06:42:57.330Z,13.00
2019-05-01T06:44:02.094Z,13.03
2019-05-01T06:44:58.195Z,12.79
2019-05-01T06:45:59.945Z,12.82
2019-05-01T06:47:03.398Z,12.58
2019-05-01T06:47:59.488Z,12.72
2019-05-01T06:48:59.907Z,12.68
2019-05-01T06:50:01.194Z,12.53
2019-05-01T06:51:00.776Z,12.45
2019-05-01T06:52:01.227Z,12.46
2019-05-01T06:53:04.525Z,12.43
2019-05-01T06:54:02.064Z,12.47
2019-05-01T06:55:02.493Z,12.39
2019-05-01T06:56:02.928Z,12.60
2019-05-01T06:57:03.352Z,12.45
2019-05-01T06:58:03.787Z,12.53
2019-05-01T06:59:04.214Z,12.55
2019-05-01T07:00:08.044Z,12.68
2019-05-01T07:01:05.081Z,12.68
2019-05-01T07:02:05.505Z,12.78
2019-05-01T07:03:10.111Z,12.82
2019-05-01T07:04:06.370Z,12.90
2019-05-01T07:05:09.078Z,12.85
2019-05-01T07:06:14.095Z,12.67
2019-05-01T07:07:23.958Z,12.60
2019-05-01T07:08:08.096Z,12.53
2019-05-01T07:09:11.983Z,12.50
2019-05-01T07:10:08.951Z,12.45
2019-05-01T07:11:10.844Z,12.61
2019-05-01T07:12:09.808Z,12.82
2019-05-01T07:13:10.246Z,12.73
2019-05-01T07:14:11.048Z,12.72
2019-05-01T07:15:11.101Z,12.82
2019-05-01T07:16:11.537Z,12.58
2019-05-01T07:17:13.566Z,12.60
2019-05-01T07:18:12.393Z,12.62
2019-05-01T07:19:12.818Z,12.57
2019-05-01T07:20:16.802Z,12.62
2019-05-01T07:21:13.678Z,12.50
2019-05-01T07:22:14.120Z,12.61
2019-05-01T07:23:17.495Z,12.45
2019-05-01T07:24:14.977Z,12.64
2019-05-01T07:25:15.407Z,12.67
2019-05-01T07:26:15.836Z,12.36
2019-05-01T07:27:18.929Z,12.36
2019-05-01T07:28:16.696Z,12.37
2019-05-01T07:29:17.119Z,12.57
2019-05-01T07:30:19.656Z,12.49
2019-05-01T07:31:17.983Z,12.68
2019-05-01T07:32:18.429Z,12.82
2019-05-01T07:33:18.848Z,12.97
2019-05-01T07:34:21.627Z,13.18
2019-05-01T07:35:19.716Z,13.04
2019-05-01T07:36:20.143Z,13.31
2019-05-01T07:37:20.905Z,13.35
2019-05-01T07:38:20.998Z,13.65
2019-05-01T07:39:21.432Z,13.83
2019-05-01T07:40:28.869Z,13.25
2019-05-01T07:41:22.295Z,13.39
2019-05-01T07:42:22.764Z,13.23
2019-05-01T07:43:23.929Z,13.35
2019-05-01T07:44:23.587Z,13.20
2019-05-01T07:45:26.487Z,13.18
2019-05-01T07:46:24.456Z,12.95
2019-05-01T07:47:25.924Z,12.98
2019-05-01T07:48:25.317Z,12.95
2019-05-01T07:49:25.746Z,13.30
2019-05-01T07:50:31.525Z,13.16
2019-05-01T07:51:26.613Z,13.00
2019-05-01T07:52:27.039Z,13.15
2019-05-01T07:53:28.361Z,13.05
2019-05-01T07:54:27.910Z,13.13
2019-05-01T07:55:28.334Z,13.15
2019-05-01T07:56:30.049Z,13.30
2019-05-01T07:57:29.227Z,13.39
2019-05-01T07:58:29.627Z,13.68
2019-05-01T07:59:30.071Z,13.83
2019-05-01T08:00:30.497Z,13.68
2019-05-01T08:01:30.923Z,13.38
2019-05-01T08:02:32.990Z,13.35
2019-05-01T08:03:31.786Z,13.15
2019-05-01T08:04:36.425Z,13.42
2019-05-01T08:05:32.657Z,13.57
2019-05-01T08:06:33.088Z,13.25
2019-05-01T08:07:33.621Z,13.52
2019-05-01T08:08:33.954Z,14.10
2019-05-01T08:09:34.398Z,14.51
2019-05-01T08:10:34.843Z,14.30
2019-05-01T08:11:39.187Z,14.79
2019-05-01T08:12:35.694Z,15.14
2019-05-01T08:13:36.343Z,15.21
2019-05-01T08:14:36.594Z,15.07
2019-05-01T08:15:37.036Z,14.82
2019-05-01T08:16:37.835Z,14.65
2019-05-01T08:17:37.862Z,14.79
2019-05-01T08:18:38.296Z,14.73
2019-05-01T08:19:39.312Z,15.19
2019-05-01T08:20:39.179Z,15.42
2019-05-01T08:21:39.596Z,15.62
2019-05-01T08:22:40.034Z,15.88
2019-05-01T08:23:42.672Z,15.92
2019-05-01T08:24:40.906Z,15.24
2019-05-01T08:25:41.508Z,14.72
2019-05-01T08:26:44.170Z,14.68
2019-05-01T08:27:42.230Z,14.84
2019-05-01T08:28:42.657Z,15.28
2019-05-01T08:29:43.813Z,15.19
2019-05-01T08:30:43.522Z,15.25
2019-05-01T08:31:43.989Z,14.97
2019-05-01T08:32:44.401Z,14.92
2019-05-01T08:33:49.682Z,15.14
2019-05-01T08:34:49.049Z,15.18
2019-05-01T08:35:45.705Z,15.88
2019-05-01T08:36:47.231Z,16.20
2019-05-01T08:37:46.576Z,16.50
2019-05-01T08:38:47.025Z,16.46
2019-05-01T08:39:47.457Z,16.87
2019-05-01T08:40:50.668Z,16.51
2019-05-01T08:41:48.331Z,17.27
2019-05-01T08:42:48.777Z,18.05
2019-05-01T08:43:54.205Z,17.82
2019-05-01T08:44:49.659Z,17.30
2019-05-01T08:45:50.105Z,16.38
2019-05-01T08:46:51.015Z,17.06
2019-05-01T08:47:50.986Z,17.20
2019-05-01T08:48:51.417Z,16.50
2019-05-01T08:49:51.865Z,16.41
2019-05-01T08:50:54.496Z,16.50
2019-05-01T08:51:52.749Z,16.12
2019-05-01T08:52:53.192Z,16.28
2019-05-01T08:53:57.954Z,15.58
2019-05-01T08:54:54.871Z,15.33
2019-05-01T08:55:54.518Z,15.55
2019-05-01T08:56:58.102Z,15.28
2019-05-01T08:57:55.427Z,15.44
2019-05-01T08:58:55.844Z,15.40
2019-05-01T09:00:00.260Z,15.90
2019-05-01T09:00:56.729Z,15.90
2019-05-01T09:02:08.789Z,16.16
2019-05-01T09:03:07.906Z,16.47
2019-05-01T09:03:58.079Z,16.47
2019-05-01T09:05:02.502Z,16.38
2019-05-01T09:05:59.086Z,16.90
2019-05-01T09:06:59.374Z,16.81
2019-05-01T09:07:59.827Z,16.86
2019-05-01T09:09:03.068Z,16.49
2019-05-01T09:10:00.705Z,16.56
2019-05-01T09:11:02.280Z,16.01
2019-05-01T09:12:01.590Z,15.95
2019-05-01T09:13:02.034Z,16.20
2019-05-01T09:14:02.480Z,15.84
2019-05-01T09:15:07.093Z,15.84
2019-05-01T09:16:03.363Z,16.36
2019-05-01T09:17:03.804Z,16.35
2019-05-01T09:18:04.251Z,16.42
2019-05-01T09:19:04.694Z,17.06
2019-05-01T09:20:05.138Z,17.31
2019-05-01T09:21:05.574Z,17.15
2019-05-01T09:22:06.019Z,17.05
2019-05-01T09:23:09.568Z,17.51
2019-05-01T09:24:06.908Z,17.29
2019-05-01T09:25:07.361Z,16.57
2019-05-01T09:26:14.779Z,16.23
2019-05-01T09:27:08.243Z,16.91
2019-05-01T09:28:08.680Z,16.75
2019-05-01T09:29:11.072Z,16.21
2019-05-01T09:30:09.560Z,16.24
2019-05-01T09:31:10.010Z,15.67
2019-05-01T09:32:11.927Z,15.86
2019-05-01T09:33:10.894Z,15.90
2019-05-01T09:34:14.102Z,15.88
2019-05-01T09:35:15.945Z,15.77
2019-05-01T09:36:12.215Z,15.95
2019-05-01T09:37:12.656Z,16.04
2019-05-01T09:39:47.437Z,15.97
2019-05-01T09:40:46.647Z,16.43
2019-05-01T09:42:41.238Z,16.54
2019-05-01T09:43:41.668Z,16.54
2019-05-01T09:45:36.245Z,16.47
2019-05-01T09:46:36.685Z,16.49
2019-05-01T09:48:31.274Z,16.69
2019-05-01T09:49:31.707Z,16.46
2019-05-01T09:51:26.283Z,17.34
2019-05-01T09:53:59.844Z,18.00
2019-05-01T09:55:00.286Z,18.44
2019-05-01T09:56:54.913Z,18.29
2019-05-01T09:57:55.319Z,19.62
2019-05-01T09:59:49.917Z,20.10
2019-05-01T10:00:52.726Z,21.40
2019-05-01T10:02:45.943Z,22.76
2019-05-01T10:03:49.413Z,21.45
2019-05-01T10:05:42.893Z,20.07
2019-05-01T10:06:41.431Z,20.67
2019-05-01T10:08:40.078Z,21.85
2019-05-01T10:09:36.498Z,22.45
2019-05-01T10:11:35.867Z,20.72
2019-05-01T10:12:32.560Z,22.30
2019-05-01T10:14:27.173Z,22.29
2019-05-01T10:15:27.621Z,22.94
2019-05-01T10:17:23.224Z,22.29
2019-05-01T10:18:23.681Z,21.66
2019-05-01T10:20:18.293Z,23.32
2019-05-01T10:21:22.522Z,23.40
2019-05-01T10:23:15.037Z,22.29
2019-05-01T10:24:14.814Z,23.69
2019-05-01T10:26:09.434Z,22.39
2019-05-01T10:27:09.889Z,23.34
2019-05-01T10:29:04.519Z,24.98
2019-05-01T10:30:04.975Z,22.53
2019-05-01T10:31:59.595Z,21.17
2019-05-01T10:33:00.051Z,20.62
2019-05-01T10:34:56.892Z,21.15
2019-05-01T10:35:56.124Z,21.98
2019-05-01T10:37:50.730Z,24.43
2019-05-01T10:38:51.188Z,24.91
2019-05-01T10:40:45.821Z,24.74
2019-05-01T10:41:47.876Z,24.85
2019-05-01T10:43:40.896Z,24.61
2019-05-01T10:44:41.359Z,26.02
2019-05-01T10:46:36.054Z,22.10
2019-05-01T10:47:36.533Z,22.70
2019-05-01T10:49:31.138Z,24.66
2019-05-01T10:50:31.586Z,25.03
2019-05-01T10:52:27.183Z,25.80
2019-05-01T10:53:27.642Z,24.28
2019-05-01T10:55:22.280Z,21.57
2019-05-01T10:56:22.731Z,21.77
2019-05-01T10:58:18.927Z,21.33
2019-05-01T10:59:17.819Z,21.22
2019-05-01T11:01:12.457Z,23.61
2019-05-01T11:02:12.922Z,23.39
2019-05-01T11:04:21.737Z,22.75
2019-05-01T11:05:08.969Z,24.24
2019-05-01T11:07:04.620Z,25.04
2019-05-01T11:08:05.333Z,24.57
2019-05-01T11:09:05.514Z,23.98
2019-05-01T11:10:05.985Z,24.77
2019-05-01T11:11:06.446Z,24.63
2019-05-01T11:12:06.905Z,22.10
2019-05-01T11:13:07.843Z,21.93
2019-05-01T11:14:07.834Z,23.93
2019-05-01T11:15:08.300Z,22.91
2019-05-01T11:16:08.751Z,22.70
2019-05-01T11:17:09.203Z,22.59
2019-05-01T11:18:09.674Z,22.18
2019-05-01T11:19:10.142Z,21.32
2019-05-01T11:20:10.588Z,21.79
2019-05-01T11:21:11.056Z,21.79
2019-05-01T11:22:11.515Z,21.15
2019-05-01T11:23:11.979Z,20.72
2019-05-01T11:24:12.464Z,20.47
2019-05-01T11:25:12.907Z,20.56
2019-05-01T11:26:13.355Z,21.32
2019-05-01T11:27:13.809Z,20.51
2019-05-01T11:28:14.268Z,20.18
2019-05-01T11:29:14.737Z,21.17
2019-05-01T11:30:15.210Z,21.42
2019-05-01T11:31:15.642Z,20.26
2019-05-01T11:32:16.099Z,20.36
2019-05-01T11:33:16.556Z,19.26
2019-05-01T11:34:17.031Z,19.44
2019-05-01T11:36:50.608Z,19.89
2019-05-01T11:37:51.114Z,20.80
2019-05-01T11:39:45.682Z,20.43
2019-05-01T11:40:46.136Z,20.41
2019-05-01T11:42:40.905Z,19.91
2019-05-01T11:43:41.166Z,20.06
2019-05-01T11:44:41.617Z,19.71
2019-05-01T11:45:42.092Z,19.54
2019-05-01T11:46:42.520Z,20.13
2019-05-01T11:47:42.968Z,20.18
2019-05-01T11:48:44.601Z,19.91
2019-05-01T11:49:43.954Z,18.93
2019-05-01T11:50:44.321Z,19.49
2019-05-01T11:51:45.883Z,19.76
2019-05-01T11:52:45.174Z,19.69
2019-05-01T11:53:45.633Z,19.33
2019-05-01T11:54:46.091Z,19.24
2019-05-01T11:55:46.515Z,19.12
2019-05-01T11:56:46.966Z,18.66
2019-05-01T11:57:47.395Z,18.47
2019-05-01T11:58:47.845Z,18.56
2019-05-01T11:59:48.343Z,18.80
2019-05-01T12:00:48.736Z,19.08
2019-05-01T12:01:49.198Z,19.26
2019-05-01T12:02:49.612Z,18.71
2019-05-01T12:03:50.050Z,18.81
2019-05-01T12:04:50.513Z,19.34
2019-05-01T12:05:50.944Z,19.24
2019-05-01T12:06:51.379Z,19.12
2019-05-01T12:09:24.974Z,19.07
2019-05-01T12:10:25.401Z,19.22
2019-05-01T12:12:20.972Z,19.56
2019-05-01T12:13:21.401Z,19.51
2019-05-01T12:15:15.992Z,19.59
2019-05-01T12:16:16.427Z,18.71
2019-05-01T12:18:11.081Z,17.92
2019-05-01T12:19:11.485Z,18.45
2019-05-01T12:21:06.047Z,18.29
2019-05-01T12:22:06.498Z,18.03
2019-05-01T12:24:01.126Z,18.74
2019-05-01T12:25:01.549Z,18.92
2019-05-01T12:26:56.153Z,19.30
2019-05-01T12:27:56.599Z,19.47
2019-05-01T12:29:51.193Z,19.18
2019-05-01T12:32:25.799Z,19.12
2019-05-01T12:33:26.177Z,19.15
2019-05-01T12:35:20.772Z,19.48
2019-05-01T12:37:55.496Z,19.11
2019-05-01T12:38:54.757Z,19.04
2019-05-01T12:40:49.342Z,18.74
2019-05-01T12:41:49.770Z,18.77
2019-05-01T12:43:44.350Z,19.02
2019-05-01T12:44:44.778Z,19.14
2019-05-01T12:46:39.383Z,18.80
2019-05-01T12:47:39.826Z,18.71
2019-05-01T12:49:34.434Z,18.81
2019-05-01T12:50:34.863Z,18.65
2019-05-01T12:52:29.511Z,18.56
2019-05-01T12:53:29.905Z,18.60
2019-05-01T12:55:24.671Z,18.52
2019-05-01T12:56:24.984Z,18.45
2019-05-01T12:57:25.419Z,18.80
2019-05-01T12:58:25.860Z,18.71
2019-05-01T12:59:26.306Z,18.58
2019-05-01T13:00:26.829Z,18.40
2019-05-01T13:01:27.251Z,18.41
2019-05-01T13:02:27.634Z,18.04
2019-05-01T13:03:28.062Z,18.50
2019-05-01T13:04:28.505Z,18.43
2019-05-01T13:05:28.949Z,18.44
2019-05-01T13:06:29.384Z,18.28
2019-05-01T13:07:29.825Z,18.41
2019-05-01T13:08:30.297Z,18.47
2019-05-01T13:09:30.707Z,18.01
2019-05-01T13:10:31.148Z,18.26
2019-05-01T13:11:31.598Z,18.19
2019-05-01T13:12:32.035Z,18.40
2019-05-01T13:13:32.483Z,18.63
2019-05-01T13:14:32.895Z,18.75
2019-05-01T13:15:33.343Z,18.73
2019-05-01T13:16:33.777Z,18.70
2019-05-01T13:17:34.217Z,18.43
2019-05-01T13:18:34.651Z,18.59
2019-05-01T13:19:35.100Z,18.95
2019-05-01T13:20:35.534Z,18.73
2019-05-01T13:21:35.980Z,18.37
2019-05-01T13:22:36.428Z,18.59
2019-05-01T13:23:36.848Z,18.44
2019-05-01T13:24:37.287Z,18.40
2019-05-01T13:25:37.736Z,18.29
2019-05-01T13:26:38.166Z,18.50
2019-05-01T13:27:38.608Z,18.66
2019-05-01T13:28:39.042Z,18.50
2019-05-01T13:29:39.497Z,18.55
2019-05-01T13:30:39.924Z,18.38
2019-05-01T13:31:40.357Z,18.44
2019-05-01T13:32:40.802Z,18.59
2019-05-01T13:33:41.239Z,18.66
2019-05-01T13:34:41.672Z,18.41
2019-05-01T13:35:42.126Z,18.26
2019-05-01T13:36:42.563Z,18.22
2019-05-01T13:37:43.008Z,18.04
2019-05-01T13:38:43.480Z,18.08
2019-05-01T13:39:43.871Z,18.34
2019-05-01T13:40:44.307Z,18.56
2019-05-01T13:41:44.786Z,18.80
2019-05-01T13:42:45.183Z,18.96
2019-05-01T13:43:45.620Z,18.77
2019-05-01T13:44:46.062Z,18.50
2019-05-01T13:45:46.518Z,18.84
2019-05-01T13:46:46.933Z,19.07
2019-05-01T13:47:47.370Z,19.08
2019-05-01T13:48:47.835Z,19.07
2019-05-01T13:49:48.243Z,18.99
2019-05-01T13:50:48.695Z,18.80
2019-05-01T13:51:49.126Z,18.81
2019-05-01T13:52:49.570Z,18.88
2019-05-01T13:53:49.998Z,18.68
2019-05-01T13:54:50.463Z,18.66
2019-05-01T13:55:50.903Z,18.80
2019-05-01T13:56:51.320Z,18.62
2019-05-01T13:57:51.748Z,18.41
2019-05-01T13:58:52.206Z,18.28
2019-05-01T13:59:52.635Z,18.43
2019-05-01T14:00:53.067Z,18.34
2019-05-01T14:01:53.506Z,18.34
2019-05-01T14:02:53.947Z,18.52
2019-05-01T14:03:54.384Z,18.43
2019-05-01T14:04:54.830Z,18.59
2019-05-01T14:05:55.272Z,18.55
2019-05-01T14:06:55.700Z,18.45
2019-05-01T14:07:56.134Z,18.60
2019-05-01T14:08:56.570Z,18.59